sensor_id;sensor_type;location;lat;lon;timestamp;temperature;humidity
19928;DHT22;10126;50.876;4.470;2023-05-17T00:00:46;9.50;99.90
19928;DHT22;10126;50.876;4.470;2023-05-17T00:02:46;9.50;99.90
19928;DHT22;10126;50.876;4.470;2023-05-17T00:04:47;9.50;99.90
19928;DHT22;10126;50.876;4.470;2023-05-17T00:06:48;9.40;99.90
19928;DHT22;10126;50.876;4.470;2023-05-17T00:08:48;9.40;99.90
19928;DHT22;10126;50.876;4.470;2023-05-17T00:10:49;9.40;99.90
19928;DHT22;10126;50.876;4.470;2023-05-17T00:12:50;9.40;99.90
19928;DHT22;10126;50.876;4.470;2023-05-17T00:14:50;9.40;99.90
19928;DHT22;10126;50.876;4.470;2023-05-17T00:16:52;9.30;99.90
19928;DHT22;10126;50.876;4.470;2023-05-17T00:18:53;9.40;99.90
19928;DHT22;10126;50.876;4.470;2023-05-17T00:20:54;9.30;99.90
19928;DHT22;10126;50.876;4.470;2023-05-17T00:22:55;9.30;99.90
19928;DHT22;10126;50.876;4.470;2023-05-17T00:24:55;9.20;99.90
19928;DHT22;10126;50.876;4.470;2023-05-17T00:26:56;9.20;99.90
19928;DHT22;10126;50.876;4.470;2023-05-17T00:28:57;9.20;99.90
19928;DHT22;10126;50.876;4.470;2023-05-17T00:30:57;9.20;99.90
19928;DHT22;10126;50.876;4.470;2023-05-17T00:32:58;9.20;99.90
19928;DHT22;10126;50.876;4.470;2023-05-17T00:34:58;9.10;99.90
19928;DHT22;10126;50.876;4.470;2023-05-17T00:36:59;9.20;99.90
19928;DHT22;10126;50.876;4.470;2023-05-17T00:39:00;9.20;99.90
19928;DHT22;10126;50.876;4.470;2023-05-17T00:41:00;9.20;99.90
19928;DHT22;10126;50.876;4.470;2023-05-17T00:43:01;9.20;99.90
19928;DHT22;10126;50.876;4.470;2023-05-17T00:45:02;9.10;99.90
19928;DHT22;10126;50.876;4.470;2023-05-17T00:47:02;9.10;99.90
19928;DHT22;10126;50.876;4.470;2023-05-17T00:49:03;9.10;99.90
19928;DHT22;10126;50.876;4.470;2023-05-17T00:51:04;9.20;99.90
19928;DHT22;10126;50.876;4.470;2023-05-17T00:53:05;9.20;99.90
19928;DHT22;10126;50.876;4.470;2023-05-17T00:55:06;9.10;99.90
19928;DHT22;10126;50.876;4.470;2023-05-17T00:57:07;9.10;99.90
19928;DHT22;10126;50.876;4.470;2023-05-17T00:59:09;9.10;99.90
19928;DHT22;10126;50.876;4.470;2023-05-17T01:01:12;9.20;99.90
19928;DHT22;10126;50.876;4.470;2023-05-17T01:03:12;9.10;99.90
19928;DHT22;10126;50.876;4.470;2023-05-17T01:05:13;9.10;99.90
19928;DHT22;10126;50.876;4.470;2023-05-17T01:07:15;9.10;99.90
19928;DHT22;10126;50.876;4.470;2023-05-17T01:09:17;9.00;99.90
19928;DHT22;10126;50.876;4.470;2023-05-17T01:18:28;8.90;99.90
19928;DHT22;10126;50.876;4.470;2023-05-17T01:20:35;9.00;99.90
19928;DHT22;10126;50.876;4.470;2023-05-17T01:22:50;8.90;99.90
19928;DHT22;10126;50.876;4.470;2023-05-17T01:25:16;8.90;99.90
19928;DHT22;10126;50.876;4.470;2023-05-17T01:27:21;8.90;99.90
19928;DHT22;10126;50.876;4.470;2023-05-17T01:29:25;8.80;99.90
19928;DHT22;10126;50.876;4.470;2023-05-17T01:31:28;8.80;99.90
19928;DHT22;10126;50.876;4.470;2023-05-17T01:33:31;8.90;99.90
19928;DHT22;10126;50.876;4.470;2023-05-17T01:35:32;8.80;99.90
19928;DHT22;10126;50.876;4.470;2023-05-17T01:37:32;8.90;99.90
19928;DHT22;10126;50.876;4.470;2023-05-17T01:39:33;8.90;99.90
19928;DHT22;10126;50.876;4.470;2023-05-17T01:41:39;8.80;99.90
19928;DHT22;10126;50.876;4.470;2023-05-17T01:48:25;9.00;99.90
19928;DHT22;10126;50.876;4.470;2023-05-17T01:50:29;9.00;99.90
19928;DHT22;10126;50.876;4.470;2023-05-17T01:52:40;8.90;99.90
19928;DHT22;10126;50.876;4.470;2023-05-17T01:54:50;8.90;99.90
19928;DHT22;10126;50.876;4.470;2023-05-17T01:56:59;8.90;99.90
19928;DHT22;10126;50.876;4.470;2023-05-17T01:59:02;8.90;99.90
19928;DHT22;10126;50.876;4.470;2023-05-17T02:01:06;8.90;99.90
19928;DHT22;10126;50.876;4.470;2023-05-17T02:03:17;8.90;99.90
19928;DHT22;10126;50.876;4.470;2023-05-17T02:05:18;9.00;99.90
19928;DHT22;10126;50.876;4.470;2023-05-17T02:07:19;9.00;99.90
19928;DHT22;10126;50.876;4.470;2023-05-17T02:09:20;9.00;99.90
19928;DHT22;10126;50.876;4.470;2023-05-17T02:11:21;9.00;99.90
19928;DHT22;10126;50.876;4.470;2023-05-17T02:13:22;8.90;99.90
19928;DHT22;10126;50.876;4.470;2023-05-17T02:15:22;8.90;99.90
19928;DHT22;10126;50.876;4.470;2023-05-17T02:17:23;8.80;99.90
19928;DHT22;10126;50.876;4.470;2023-05-17T02:19:23;8.80;99.90
19928;DHT22;10126;50.876;4.470;2023-05-17T02:21:24;8.90;99.90
19928;DHT22;10126;50.876;4.470;2023-05-17T02:23:25;8.80;99.90
19928;DHT22;10126;50.876;4.470;2023-05-17T02:25:25;8.80;99.90
19928;DHT22;10126;50.876;4.470;2023-05-17T02:27:26;8.80;99.90
19928;DHT22;10126;50.876;4.470;2023-05-17T02:29:27;8.70;99.90
19928;DHT22;10126;50.876;4.470;2023-05-17T02:31:30;8.70;99.90
19928;DHT22;10126;50.876;4.470;2023-05-17T02:33:31;8.70;99.90
19928;DHT22;10126;50.876;4.470;2023-05-17T02:35:32;8.70;99.90
19928;DHT22;10126;50.876;4.470;2023-05-17T02:37:32;8.70;99.90
19928;DHT22;10126;50.876;4.470;2023-05-17T02:39:33;8.60;99.90
19928;DHT22;10126;50.876;4.470;2023-05-17T02:41:34;8.60;99.90
19928;DHT22;10126;50.876;4.470;2023-05-17T02:43:34;8.60;99.90
19928;DHT22;10126;50.876;4.470;2023-05-17T02:45:35;8.60;99.90
19928;DHT22;10126;50.876;4.470;2023-05-17T02:47:36;8.60;99.90
19928;DHT22;10126;50.876;4.470;2023-05-17T02:49:36;8.50;99.90
19928;DHT22;10126;50.876;4.470;2023-05-17T02:51:37;8.50;99.90
19928;DHT22;10126;50.876;4.470;2023-05-17T02:53:37;8.40;99.90
19928;DHT22;10126;50.876;4.470;2023-05-17T02:55:38;8.30;99.90
19928;DHT22;10126;50.876;4.470;2023-05-17T02:57:39;8.20;99.90
19928;DHT22;10126;50.876;4.470;2023-05-17T02:59:39;8.30;99.90
19928;DHT22;10126;50.876;4.470;2023-05-17T03:01:40;8.30;99.90
19928;DHT22;10126;50.876;4.470;2023-05-17T03:03:41;8.30;99.90
19928;DHT22;10126;50.876;4.470;2023-05-17T03:05:42;8.40;99.90
19928;DHT22;10126;50.876;4.470;2023-05-17T03:07:42;8.50;99.90
19928;DHT22;10126;50.876;4.470;2023-05-17T03:09:43;8.40;99.90
19928;DHT22;10126;50.876;4.470;2023-05-17T03:11:44;8.40;99.90
19928;DHT22;10126;50.876;4.470;2023-05-17T03:13:45;8.40;99.90
19928;DHT22;10126;50.876;4.470;2023-05-17T03:15:50;8.30;99.90
19928;DHT22;10126;50.876;4.470;2023-05-17T03:17:51;8.30;99.90
19928;DHT22;10126;50.876;4.470;2023-05-17T03:19:52;8.30;99.90
19928;DHT22;10126;50.876;4.470;2023-05-17T03:21:53;8.30;99.90
19928;DHT22;10126;50.876;4.470;2023-05-17T03:23:53;8.20;99.90
19928;DHT22;10126;50.876;4.470;2023-05-17T03:25:54;8.20;99.90
19928;DHT22;10126;50.876;4.470;2023-05-17T03:27:54;8.10;99.90
19928;DHT22;10126;50.876;4.470;2023-05-17T03:29:55;8.20;99.90
19928;DHT22;10126;50.876;4.470;2023-05-17T03:31:56;8.30;99.90
19928;DHT22;10126;50.876;4.470;2023-05-17T03:33:57;8.40;99.90
19928;DHT22;10126;50.876;4.470;2023-05-17T03:35:57;8.40;99.90
19928;DHT22;10126;50.876;4.470;2023-05-17T03:37:58;8.40;99.90
19928;DHT22;10126;50.876;4.470;2023-05-17T03:39:58;8.40;99.90
19928;DHT22;10126;50.876;4.470;2023-05-17T03:41:59;8.30;99.90
19928;DHT22;10126;50.876;4.470;2023-05-17T03:44:01;8.30;99.90
19928;DHT22;10126;50.876;4.470;2023-05-17T03:46:02;8.30;99.90
19928;DHT22;10126;50.876;4.470;2023-05-17T03:48:02;8.30;99.90
19928;DHT22;10126;50.876;4.470;2023-05-17T03:50:04;8.50;99.90
19928;DHT22;10126;50.876;4.470;2023-05-17T03:52:05;8.60;99.90
19928;DHT22;10126;50.876;4.470;2023-05-17T03:54:06;8.60;99.90
19928;DHT22;10126;50.876;4.470;2023-05-17T03:56:07;8.70;99.90
19928;DHT22;10126;50.876;4.470;2023-05-17T03:58:08;8.70;99.90
19928;DHT22;10126;50.876;4.470;2023-05-17T04:00:09;8.90;99.90
19928;DHT22;10126;50.876;4.470;2023-05-17T04:02:11;8.90;99.90
19928;DHT22;10126;50.876;4.470;2023-05-17T04:04:11;9.00;99.90
19928;DHT22;10126;50.876;4.470;2023-05-17T04:06:13;9.00;99.90
19928;DHT22;10126;50.876;4.470;2023-05-17T04:08:14;9.00;99.90
19928;DHT22;10126;50.876;4.470;2023-05-17T04:10:14;9.00;99.90
19928;DHT22;10126;50.876;4.470;2023-05-17T04:12:15;9.10;99.90
19928;DHT22;10126;50.876;4.470;2023-05-17T04:14:17;9.10;99.90
19928;DHT22;10126;50.876;4.470;2023-05-17T04:16:20;9.00;99.90
19928;DHT22;10126;50.876;4.470;2023-05-17T04:18:24;9.00;99.90
19928;DHT22;10126;50.876;4.470;2023-05-17T04:23:36;9.20;99.90
19928;DHT22;10126;50.876;4.470;2023-05-17T04:25:39;9.50;99.90
19928;DHT22;10126;50.876;4.470;2023-05-17T04:28:09;9.50;99.90
19928;DHT22;10126;50.876;4.470;2023-05-17T04:30:17;9.50;99.90
19928;DHT22;10126;50.876;4.470;2023-05-17T04:32:37;9.60;99.90
19928;DHT22;10126;50.876;4.470;2023-05-17T04:34:37;9.70;99.90
19928;DHT22;10126;50.876;4.470;2023-05-17T04:36:38;9.80;99.90
19928;DHT22;10126;50.876;4.470;2023-05-17T04:38:39;9.70;99.90
19928;DHT22;10126;50.876;4.470;2023-05-17T04:40:42;9.90;99.90
19928;DHT22;10126;50.876;4.470;2023-05-17T04:42:43;10.00;99.90
19928;DHT22;10126;50.876;4.470;2023-05-17T04:44:53;10.00;99.90
19928;DHT22;10126;50.876;4.470;2023-05-17T04:46:53;10.20;99.90
19928;DHT22;10126;50.876;4.470;2023-05-17T04:48:54;10.40;99.90
19928;DHT22;10126;50.876;4.470;2023-05-17T04:51:01;10.50;99.90
19928;DHT22;10126;50.876;4.470;2023-05-17T04:53:06;10.60;99.90
19928;DHT22;10126;50.876;4.470;2023-05-17T04:55:09;10.70;99.90
19928;DHT22;10126;50.876;4.470;2023-05-17T04:57:10;10.70;99.90
19928;DHT22;10126;50.876;4.470;2023-05-17T04:59:11;10.70;99.90
19928;DHT22;10126;50.876;4.470;2023-05-17T05:01:11;10.90;99.90
19928;DHT22;10126;50.876;4.470;2023-05-17T05:03:12;10.80;99.90
19928;DHT22;10126;50.876;4.470;2023-05-17T05:05:13;11.00;99.90
19928;DHT22;10126;50.876;4.470;2023-05-17T05:07:13;11.10;99.90
19928;DHT22;10126;50.876;4.470;2023-05-17T05:09:14;11.10;99.90
19928;DHT22;10126;50.876;4.470;2023-05-17T05:11:15;11.30;99.90
19928;DHT22;10126;50.876;4.470;2023-05-17T05:13:16;11.30;99.90
19928;DHT22;10126;50.876;4.470;2023-05-17T05:15:16;11.40;99.90
19928;DHT22;10126;50.876;4.470;2023-05-17T05:17:18;11.40;99.90
19928;DHT22;10126;50.876;4.470;2023-05-17T05:19:19;11.50;99.90
19928;DHT22;10126;50.876;4.470;2023-05-17T05:21:19;11.60;99.90
19928;DHT22;10126;50.876;4.470;2023-05-17T05:23:20;11.80;99.90
19928;DHT22;10126;50.876;4.470;2023-05-17T05:25:21;11.90;99.90
19928;DHT22;10126;50.876;4.470;2023-05-17T05:27:21;12.00;99.90
19928;DHT22;10126;50.876;4.470;2023-05-17T05:29:22;12.10;99.90
19928;DHT22;10126;50.876;4.470;2023-05-17T05:31:22;12.20;99.90
19928;DHT22;10126;50.876;4.470;2023-05-17T05:33:23;12.40;99.90
19928;DHT22;10126;50.876;4.470;2023-05-17T05:35:24;12.80;99.90
19928;DHT22;10126;50.876;4.470;2023-05-17T05:37:29;13.00;99.90
19928;DHT22;10126;50.876;4.470;2023-05-17T05:39:29;13.10;99.90
19928;DHT22;10126;50.876;4.470;2023-05-17T05:41:30;13.30;99.90
19928;DHT22;10126;50.876;4.470;2023-05-17T05:43:32;13.40;99.90
19928;DHT22;10126;50.876;4.470;2023-05-17T05:45:35;13.50;99.90
19928;DHT22;10126;50.876;4.470;2023-05-17T05:47:35;13.50;99.90
19928;DHT22;10126;50.876;4.470;2023-05-17T05:49:36;13.70;99.90
19928;DHT22;10126;50.876;4.470;2023-05-17T05:51:37;14.00;99.90
19928;DHT22;10126;50.876;4.470;2023-05-17T05:53:38;13.90;99.90
19928;DHT22;10126;50.876;4.470;2023-05-17T05:55:41;14.00;99.90
19928;DHT22;10126;50.876;4.470;2023-05-17T05:57:42;14.10;99.90
19928;DHT22;10126;50.876;4.470;2023-05-17T05:59:42;14.00;99.90
19928;DHT22;10126;50.876;4.470;2023-05-17T06:01:44;13.50;99.90
19928;DHT22;10126;50.876;4.470;2023-05-17T06:03:44;13.50;99.90
19928;DHT22;10126;50.876;4.470;2023-05-17T06:05:45;13.70;99.90
19928;DHT22;10126;50.876;4.470;2023-05-17T06:07:46;13.90;99.90
19928;DHT22;10126;50.876;4.470;2023-05-17T06:09:46;14.10;99.90
19928;DHT22;10126;50.876;4.470;2023-05-17T06:11:47;14.30;99.90
19928;DHT22;10126;50.876;4.470;2023-05-17T06:13:48;14.30;99.90
19928;DHT22;10126;50.876;4.470;2023-05-17T06:15:48;14.30;99.90
19928;DHT22;10126;50.876;4.470;2023-05-17T06:17:49;14.50;99.90
19928;DHT22;10126;50.876;4.470;2023-05-17T06:19:50;14.50;99.90
19928;DHT22;10126;50.876;4.470;2023-05-17T06:21:51;14.60;99.90
19928;DHT22;10126;50.876;4.470;2023-05-17T06:23:52;14.50;99.90
19928;DHT22;10126;50.876;4.470;2023-05-17T06:25:53;14.50;99.90
19928;DHT22;10126;50.876;4.470;2023-05-17T06:27:53;14.30;99.90
19928;DHT22;10126;50.876;4.470;2023-05-17T06:29:54;14.40;99.90
19928;DHT22;10126;50.876;4.470;2023-05-17T06:31:54;14.40;99.90
19928;DHT22;10126;50.876;4.470;2023-05-17T06:33:56;14.40;99.90
19928;DHT22;10126;50.876;4.470;2023-05-17T06:35:56;14.20;99.90
19928;DHT22;10126;50.876;4.470;2023-05-17T06:37:57;14.10;99.90
19928;DHT22;10126;50.876;4.470;2023-05-17T06:40:02;14.30;99.90
19928;DHT22;10126;50.876;4.470;2023-05-17T06:42:04;14.70;99.90
19928;DHT22;10126;50.876;4.470;2023-05-17T06:44:05;15.20;99.90
19928;DHT22;10126;50.876;4.470;2023-05-17T06:46:06;15.60;99.90
19928;DHT22;10126;50.876;4.470;2023-05-17T06:48:07;16.20;99.90
19928;DHT22;10126;50.876;4.470;2023-05-17T06:50:08;17.00;99.90
19928;DHT22;10126;50.876;4.470;2023-05-17T06:52:09;17.60;99.90
19928;DHT22;10126;50.876;4.470;2023-05-17T06:54:09;17.70;99.90
19928;DHT22;10126;50.876;4.470;2023-05-17T06:56:10;18.10;99.90
19928;DHT22;10126;50.876;4.470;2023-05-17T06:58:13;17.80;99.90
19928;DHT22;10126;50.876;4.470;2023-05-17T07:00:14;16.90;99.90
19928;DHT22;10126;50.876;4.470;2023-05-17T07:02:15;16.50;99.90
19928;DHT22;10126;50.876;4.470;2023-05-17T07:04:16;17.60;99.90
19928;DHT22;10126;50.876;4.470;2023-05-17T07:06:16;19.10;99.90
19928;DHT22;10126;50.876;4.470;2023-05-17T07:08:17;20.30;99.90
19928;DHT22;10126;50.876;4.470;2023-05-17T07:10:18;20.40;99.90
19928;DHT22;10126;50.876;4.470;2023-05-17T07:12:18;21.40;99.90
19928;DHT22;10126;50.876;4.470;2023-05-17T07:14:19;20.30;99.90
19928;DHT22;10126;50.876;4.470;2023-05-17T07:16:20;20.30;99.90
19928;DHT22;10126;50.876;4.470;2023-05-17T07:18:21;20.00;99.90
19928;DHT22;10126;50.876;4.470;2023-05-17T07:20:21;20.30;99.90
19928;DHT22;10126;50.876;4.470;2023-05-17T07:22:22;19.50;99.90
19928;DHT22;10126;50.876;4.470;2023-05-17T07:24:23;19.00;99.90
19928;DHT22;10126;50.876;4.470;2023-05-17T07:26:23;18.40;99.90
19928;DHT22;10126;50.876;4.470;2023-05-17T07:28:24;18.80;99.90
19928;DHT22;10126;50.876;4.470;2023-05-17T07:30:25;18.70;99.90
19928;DHT22;10126;50.876;4.470;2023-05-17T07:32:26;18.80;99.90
19928;DHT22;10126;50.876;4.470;2023-05-17T07:34:26;19.60;99.90
19928;DHT22;10126;50.876;4.470;2023-05-17T07:36:27;20.60;99.90
19928;DHT22;10126;50.876;4.470;2023-05-17T07:38:29;20.80;99.90
19928;DHT22;10126;50.876;4.470;2023-05-17T07:40:30;20.80;99.90
19928;DHT22;10126;50.876;4.470;2023-05-17T07:42:32;20.50;99.90
19928;DHT22;10126;50.876;4.470;2023-05-17T07:44:33;19.80;99.90
19928;DHT22;10126;50.876;4.470;2023-05-17T07:46:33;19.90;99.90
19928;DHT22;10126;50.876;4.470;2023-05-17T07:48:34;21.30;99.90
19928;DHT22;10126;50.876;4.470;2023-05-17T07:50:35;21.60;99.90
19928;DHT22;10126;50.876;4.470;2023-05-17T07:52:35;22.70;99.90
19928;DHT22;10126;50.876;4.470;2023-05-17T07:54:36;22.10;99.90
19928;DHT22;10126;50.876;4.470;2023-05-17T07:56:36;20.00;99.90
19928;DHT22;10126;50.876;4.470;2023-05-17T07:58:37;18.90;99.90
19928;DHT22;10126;50.876;4.470;2023-05-17T08:00:38;19.00;99.90
19928;DHT22;10126;50.876;4.470;2023-05-17T08:02:42;19.90;99.90
19928;DHT22;10126;50.876;4.470;2023-05-17T08:04:42;21.80;99.90
19928;DHT22;10126;50.876;4.470;2023-05-17T08:06:43;22.20;99.90
19928;DHT22;10126;50.876;4.470;2023-05-17T08:08:47;22.60;99.90
19928;DHT22;10126;50.876;4.470;2023-05-17T08:10:48;23.40;99.90
19928;DHT22;10126;50.876;4.470;2023-05-17T08:12:49;23.80;99.90
19928;DHT22;10126;50.876;4.470;2023-05-17T08:14:50;23.80;99.90
19928;DHT22;10126;50.876;4.470;2023-05-17T08:16:51;24.40;99.90
19928;DHT22;10126;50.876;4.470;2023-05-17T08:18:51;24.70;99.90
19928;DHT22;10126;50.876;4.470;2023-05-17T08:20:52;21.90;99.90
19928;DHT22;10126;50.876;4.470;2023-05-17T08:22:52;21.40;99.90
19928;DHT22;10126;50.876;4.470;2023-05-17T08:24:53;20.40;99.90
19928;DHT22;10126;50.876;4.470;2023-05-17T08:26:54;20.60;99.90
19928;DHT22;10126;50.876;4.470;2023-05-17T08:28:55;19.60;99.90
19928;DHT22;10126;50.876;4.470;2023-05-17T08:30:57;21.10;99.90
19928;DHT22;10126;50.876;4.470;2023-05-17T08:32:57;20.80;99.90
19928;DHT22;10126;50.876;4.470;2023-05-17T08:34:58;20.00;99.90
19928;DHT22;10126;50.876;4.470;2023-05-17T08:36:59;20.60;99.90
19928;DHT22;10126;50.876;4.470;2023-05-17T08:39:00;20.30;99.90
19928;DHT22;10126;50.876;4.470;2023-05-17T08:41:07;19.20;99.90
19928;DHT22;10126;50.876;4.470;2023-05-17T08:43:10;19.40;99.90
19928;DHT22;10126;50.876;4.470;2023-05-17T08:45:12;18.60;99.90
19928;DHT22;10126;50.876;4.470;2023-05-17T08:47:18;17.30;99.90
19928;DHT22;10126;50.876;4.470;2023-05-17T08:49:27;17.00;99.90
19928;DHT22;10126;50.876;4.470;2023-05-17T08:51:30;17.00;99.90
19928;DHT22;10126;50.876;4.470;2023-05-17T08:53:32;17.00;99.90
19928;DHT22;10126;50.876;4.470;2023-05-17T08:55:35;16.70;99.90
19928;DHT22;10126;50.876;4.470;2023-05-17T08:57:37;16.30;99.90
19928;DHT22;10126;50.876;4.470;2023-05-17T08:59:38;16.30;99.90
19928;DHT22;10126;50.876;4.470;2023-05-17T09:01:42;16.60;99.90
19928;DHT22;10126;50.876;4.470;2023-05-17T09:03:45;18.00;99.90
19928;DHT22;10126;50.876;4.470;2023-05-17T09:05:50;19.90;99.90
19928;DHT22;10126;50.876;4.470;2023-05-17T09:07:55;19.80;99.90
19928;DHT22;10126;50.876;4.470;2023-05-17T09:09:59;17.90;99.90
19928;DHT22;10126;50.876;4.470;2023-05-17T09:12:00;18.30;99.90
19928;DHT22;10126;50.876;4.470;2023-05-17T09:14:06;19.70;99.90
19928;DHT22;10126;50.876;4.470;2023-05-17T09:16:12;21.10;99.90
19928;DHT22;10126;50.876;4.470;2023-05-17T09:18:14;21.80;99.90
19928;DHT22;10126;50.876;4.470;2023-05-17T09:20:25;21.80;99.90
19928;DHT22;10126;50.876;4.470;2023-05-17T09:22:34;21.80;99.90
19928;DHT22;10126;50.876;4.470;2023-05-17T09:24:36;21.50;99.90
19928;DHT22;10126;50.876;4.470;2023-05-17T09:26:41;20.90;99.90
19928;DHT22;10126;50.876;4.470;2023-05-17T09:28:43;21.20;99.90
19928;DHT22;10126;50.876;4.470;2023-05-17T09:30:46;20.50;99.90
19928;DHT22;10126;50.876;4.470;2023-05-17T09:32:48;19.90;99.90
19928;DHT22;10126;50.876;4.470;2023-05-17T09:34:50;19.70;99.90
19928;DHT22;10126;50.876;4.470;2023-05-17T09:36:55;21.30;99.90
19928;DHT22;10126;50.876;4.470;2023-05-17T09:38:58;22.00;99.90
19928;DHT22;10126;50.876;4.470;2023-05-17T09:40:59;22.10;99.90
19928;DHT22;10126;50.876;4.470;2023-05-17T09:43:01;21.90;99.90
19928;DHT22;10126;50.876;4.470;2023-05-17T09:45:02;20.70;99.90
19928;DHT22;10126;50.876;4.470;2023-05-17T09:47:03;19.20;99.90
19928;DHT22;10126;50.876;4.470;2023-05-17T09:49:04;18.30;99.90
19928;DHT22;10126;50.876;4.470;2023-05-17T09:51:06;18.40;99.90
19928;DHT22;10126;50.876;4.470;2023-05-17T09:53:21;18.30;99.90
19928;DHT22;10126;50.876;4.470;2023-05-17T09:55:23;18.20;99.90
19928;DHT22;10126;50.876;4.470;2023-05-17T09:57:34;17.30;99.90
19928;DHT22;10126;50.876;4.470;2023-05-17T09:59:36;17.90;99.90
19928;DHT22;10126;50.876;4.470;2023-05-17T10:01:39;18.80;99.90
19928;DHT22;10126;50.876;4.470;2023-05-17T10:03:40;18.70;99.90
19928;DHT22;10126;50.876;4.470;2023-05-17T10:05:42;19.40;99.90
19928;DHT22;10126;50.876;4.470;2023-05-17T10:07:45;20.00;99.90
19928;DHT22;10126;50.876;4.470;2023-05-17T10:09:47;21.10;99.90
19928;DHT22;10126;50.876;4.470;2023-05-17T10:11:51;20.30;99.90
19928;DHT22;10126;50.876;4.470;2023-05-17T10:14:21;21.20;99.90
19928;DHT22;10126;50.876;4.470;2023-05-17T10:16:22;20.60;99.90
19928;DHT22;10126;50.876;4.470;2023-05-17T10:18:24;20.80;99.90
19928;DHT22;10126;50.876;4.470;2023-05-17T10:20:25;20.00;99.90
19928;DHT22;10126;50.876;4.470;2023-05-17T10:22:27;19.10;99.90
19928;DHT22;10126;50.876;4.470;2023-05-17T10:24:29;18.50;99.90
19928;DHT22;10126;50.876;4.470;2023-05-17T10:26:30;18.60;99.90
19928;DHT22;10126;50.876;4.470;2023-05-17T10:28:32;18.40;99.90
19928;DHT22;10126;50.876;4.470;2023-05-17T10:30:34;18.00;99.90
19928;DHT22;10126;50.876;4.470;2023-05-17T10:32:35;18.00;99.90
19928;DHT22;10126;50.876;4.470;2023-05-17T10:34:37;17.50;99.90
19928;DHT22;10126;50.876;4.470;2023-05-17T10:36:38;17.30;99.90
19928;DHT22;10126;50.876;4.470;2023-05-17T10:38:40;17.10;99.90
19928;DHT22;10126;50.876;4.470;2023-05-17T10:40:42;17.00;99.90
19928;DHT22;10126;50.876;4.470;2023-05-17T10:42:46;17.10;99.90
19928;DHT22;10126;50.876;4.470;2023-05-17T10:44:52;17.20;99.90
19928;DHT22;10126;50.876;4.470;2023-05-17T10:46:54;17.10;99.90
19928;DHT22;10126;50.876;4.470;2023-05-17T10:48:57;17.30;99.90
19928;DHT22;10126;50.876;4.470;2023-05-17T10:51:05;17.40;99.90
19928;DHT22;10126;50.876;4.470;2023-05-17T10:53:09;17.70;99.90
19928;DHT22;10126;50.876;4.470;2023-05-17T10:55:10;18.00;99.90
19928;DHT22;10126;50.876;4.470;2023-05-17T10:57:20;17.80;99.90
19928;DHT22;10126;50.876;4.470;2023-05-17T10:59:25;17.50;99.90
19928;DHT22;10126;50.876;4.470;2023-05-17T11:03:50;17.60;99.90
19928;DHT22;10126;50.876;4.470;2023-05-17T11:08:14;17.80;99.90
19928;DHT22;10126;50.876;4.470;2023-05-17T11:10:15;17.20;99.90
19928;DHT22;10126;50.876;4.470;2023-05-17T11:14:47;17.20;99.90
19928;DHT22;10126;50.876;4.470;2023-05-17T11:16:55;17.60;99.90
19928;DHT22;10126;50.876;4.470;2023-05-17T11:19:06;17.80;99.90
19928;DHT22;10126;50.876;4.470;2023-05-17T11:21:07;17.80;99.90
19928;DHT22;10126;50.876;4.470;2023-05-17T11:23:16;17.70;99.90
19928;DHT22;10126;50.876;4.470;2023-05-17T11:25:20;17.50;99.90
19928;DHT22;10126;50.876;4.470;2023-05-17T11:27:21;17.60;99.90
19928;DHT22;10126;50.876;4.470;2023-05-17T11:29:29;17.90;99.90
19928;DHT22;10126;50.876;4.470;2023-05-17T11:31:32;17.50;99.90
19928;DHT22;10126;50.876;4.470;2023-05-17T11:33:40;17.50;99.90
19928;DHT22;10126;50.876;4.470;2023-05-17T11:35:42;17.40;99.90
19928;DHT22;10126;50.876;4.470;2023-05-17T11:37:44;17.40;99.90
19928;DHT22;10126;50.876;4.470;2023-05-17T11:40:06;17.10;99.90
19928;DHT22;10126;50.876;4.470;2023-05-17T11:42:23;17.20;99.90
19928;DHT22;10126;50.876;4.470;2023-05-17T11:44:31;16.70;99.90
19928;DHT22;10126;50.876;4.470;2023-05-17T11:46:32;16.50;99.90
19928;DHT22;10126;50.876;4.470;2023-05-17T11:48:34;16.60;99.90
19928;DHT22;10126;50.876;4.470;2023-05-17T11:50:36;16.80;99.90
19928;DHT22;10126;50.876;4.470;2023-05-17T11:52:39;16.80;99.90
19928;DHT22;10126;50.876;4.470;2023-05-17T11:54:40;16.90;99.90
19928;DHT22;10126;50.876;4.470;2023-05-17T11:56:42;16.70;99.90
19928;DHT22;10126;50.876;4.470;2023-05-17T11:58:43;16.80;99.90
19928;DHT22;10126;50.876;4.470;2023-05-17T12:00:44;16.90;99.90
19928;DHT22;10126;50.876;4.470;2023-05-17T12:02:45;16.90;99.90
19928;DHT22;10126;50.876;4.470;2023-05-17T12:04:46;16.90;99.90
19928;DHT22;10126;50.876;4.470;2023-05-17T12:06:47;16.70;99.90
19928;DHT22;10126;50.876;4.470;2023-05-17T12:08:47;16.70;99.90
19928;DHT22;10126;50.876;4.470;2023-05-17T12:10:50;16.90;99.90
19928;DHT22;10126;50.876;4.470;2023-05-17T12:12:51;17.10;99.90
19928;DHT22;10126;50.876;4.470;2023-05-17T12:14:52;17.20;99.90
19928;DHT22;10126;50.876;4.470;2023-05-17T12:16:53;17.30;99.90
19928;DHT22;10126;50.876;4.470;2023-05-17T12:18:55;16.70;99.90
19928;DHT22;10126;50.876;4.470;2023-05-17T12:20:58;16.30;99.90
19928;DHT22;10126;50.876;4.470;2023-05-17T12:23:04;16.10;99.90
19928;DHT22;10126;50.876;4.470;2023-05-17T12:25:18;16.30;99.90
19928;DHT22;10126;50.876;4.470;2023-05-17T12:27:25;16.50;99.90
19928;DHT22;10126;50.876;4.470;2023-05-17T12:29:28;16.60;99.90
19928;DHT22;10126;50.876;4.470;2023-05-17T12:31:34;17.00;99.90
19928;DHT22;10126;50.876;4.470;2023-05-17T12:33:38;17.10;99.90
19928;DHT22;10126;50.876;4.470;2023-05-17T12:35:40;17.10;99.90
19928;DHT22;10126;50.876;4.470;2023-05-17T12:37:41;17.00;99.90
19928;DHT22;10126;50.876;4.470;2023-05-17T12:39:42;16.60;99.90
19928;DHT22;10126;50.876;4.470;2023-05-17T12:41:43;16.40;99.90
19928;DHT22;10126;50.876;4.470;2023-05-17T12:43:44;16.30;99.90
19928;DHT22;10126;50.876;4.470;2023-05-17T12:45:46;16.40;99.90
19928;DHT22;10126;50.876;4.470;2023-05-17T12:47:47;16.50;99.90
19928;DHT22;10126;50.876;4.470;2023-05-17T12:49:54;16.60;99.90
19928;DHT22;10126;50.876;4.470;2023-05-17T12:51:55;16.80;99.90
19928;DHT22;10126;50.876;4.470;2023-05-17T12:53:56;17.00;99.90
19928;DHT22;10126;50.876;4.470;2023-05-17T12:55:59;17.00;99.90
19928;DHT22;10126;50.876;4.470;2023-05-17T12:58:01;16.70;99.90
19928;DHT22;10126;50.876;4.470;2023-05-17T13:00:05;16.30;99.90
19928;DHT22;10126;50.876;4.470;2023-05-17T13:02:07;16.00;99.90
19928;DHT22;10126;50.876;4.470;2023-05-17T13:04:07;16.10;99.90
19928;DHT22;10126;50.876;4.470;2023-05-17T13:06:08;16.20;99.90
19928;DHT22;10126;50.876;4.470;2023-05-17T13:08:20;16.40;99.90
19928;DHT22;10126;50.876;4.470;2023-05-17T13:10:25;16.70;99.90
19928;DHT22;10126;50.876;4.470;2023-05-17T13:12:26;16.80;99.90
19928;DHT22;10126;50.876;4.470;2023-05-17T13:14:47;16.60;99.90
19928;DHT22;10126;50.876;4.470;2023-05-17T13:16:50;16.30;99.90
19928;DHT22;10126;50.876;4.470;2023-05-17T13:18:51;16.20;99.90